sensor_id;sensor_type;location;lat;lon;timestamp;P1;durP1;ratioP1;P2;durP2;ratioP2
55913;SDS011;58179;48.776;9.124;2022-10-16T00:00:39;11.98;;;2.65;;
55913;SDS011;58179;48.776;9.124;2022-10-16T00:03:07;19.17;;;3.00;;
55913;SDS011;58179;48.776;9.124;2022-10-16T00:05:38;8.25;;;2.53;;
55913;SDS011;58179;48.776;9.124;2022-10-16T00:08:06;11.25;;;2.90;;
55913;SDS011;58179;48.776;9.124;2022-10-16T00:10:32;14.15;;;2.83;;
55913;SDS011;58179;48.776;9.124;2022-10-16T00:12:59;10.25;;;2.85;;
55913;SDS011;58179;48.776;9.124;2022-10-16T00:15:26;5.80;;;2.63;;
55913;SDS011;58179;48.776;9.124;2022-10-16T00:17:52;19.80;;;3.10;;
55913;SDS011;58179;48.776;9.124;2022-10-16T00:20:18;12.98;;;3.05;;
55913;SDS011;58179;48.776;9.124;2022-10-16T00:22:44;7.87;;;2.60;;
55913;SDS011;58179;48.776;9.124;2022-10-16T00:25:09;8.43;;;3.03;;
55913;SDS011;58179;48.776;9.124;2022-10-16T00:27:35;10.50;;;2.80;;
55913;SDS011;58179;48.776;9.124;2022-10-16T00:30:01;4.93;;;2.83;;
55913;SDS011;58179;48.776;9.124;2022-10-16T00:32:29;14.50;;;2.78;;
55913;SDS011;58179;48.776;9.124;2022-10-16T00:34:55;14.37;;;2.97;;
55913;SDS011;58179;48.776;9.124;2022-10-16T00:37:21;6.28;;;2.72;;
55913;SDS011;58179;48.776;9.124;2022-10-16T00:39:47;5.10;;;2.80;;
55913;SDS011;58179;48.776;9.124;2022-10-16T00:42:15;7.50;;;2.50;;
55913;SDS011;58179;48.776;9.124;2022-10-16T00:44:43;9.35;;;2.97;;
55913;SDS011;58179;48.776;9.124;2022-10-16T00:47:15;9.23;;;2.70;;
55913;SDS011;58179;48.776;9.124;2022-10-16T00:49:49;7.57;;;3.08;;
55913;SDS011;58179;48.776;9.124;2022-10-16T00:52:18;10.18;;;2.80;;
55913;SDS011;58179;48.776;9.124;2022-10-16T00:54:45;10.43;;;2.75;;
55913;SDS011;58179;48.776;9.124;2022-10-16T00:57:12;10.35;;;2.70;;
55913;SDS011;58179;48.776;9.124;2022-10-16T00:59:39;8.27;;;2.88;;
55913;SDS011;58179;48.776;9.124;2022-10-16T01:02:09;14.63;;;2.85;;
55913;SDS011;58179;48.776;9.124;2022-10-16T01:04:38;5.37;;;2.90;;
55913;SDS011;58179;48.776;9.124;2022-10-16T01:07:09;10.73;;;3.20;;
55913;SDS011;58179;48.776;9.124;2022-10-16T01:09:51;7.85;;;2.90;;
55913;SDS011;58179;48.776;9.124;2022-10-16T01:12:31;14.00;;;2.92;;
55913;SDS011;58179;48.776;9.124;2022-10-16T01:15:06;6.25;;;2.90;;
55913;SDS011;58179;48.776;9.124;2022-10-16T01:17:40;5.53;;;2.60;;
55913;SDS011;58179;48.776;9.124;2022-10-16T01:20:14;6.47;;;2.67;;
55913;SDS011;58179;48.776;9.124;2022-10-16T01:22:56;11.80;;;3.50;;
55913;SDS011;58179;48.776;9.124;2022-10-16T01:25:37;9.90;;;2.92;;
55913;SDS011;58179;48.776;9.124;2022-10-16T01:28:39;11.75;;;2.90;;
55913;SDS011;58179;48.776;9.124;2022-10-16T01:31:10;10.20;;;2.75;;
55913;SDS011;58179;48.776;9.124;2022-10-16T01:33:43;6.70;;;2.33;;
55913;SDS011;58179;48.776;9.124;2022-10-16T01:36:15;9.07;;;2.40;;
55913;SDS011;58179;48.776;9.124;2022-10-16T01:38:47;9.32;;;2.58;;
55913;SDS011;58179;48.776;9.124;2022-10-16T01:41:18;7.05;;;2.30;;
55913;SDS011;58179;48.776;9.124;2022-10-16T01:43:53;5.25;;;2.42;;
55913;SDS011;58179;48.776;9.124;2022-10-16T01:46:26;11.02;;;3.05;;
55913;SDS011;58179;48.776;9.124;2022-10-16T01:48:55;13.25;;;2.45;;
55913;SDS011;58179;48.776;9.124;2022-10-16T01:51:22;16.00;;;2.88;;
55913;SDS011;58179;48.776;9.124;2022-10-16T01:53:50;18.80;;;2.67;;
55913;SDS011;58179;48.776;9.124;2022-10-16T01:56:20;8.10;;;2.70;;
55913;SDS011;58179;48.776;9.124;2022-10-16T01:58:51;7.22;;;2.20;;
55913;SDS011;58179;48.776;9.124;2022-10-16T02:01:21;13.55;;;2.50;;
55913;SDS011;58179;48.776;9.124;2022-10-16T02:03:50;5.45;;;2.25;;
55913;SDS011;58179;48.776;9.124;2022-10-16T02:06:21;4.53;;;2.20;;
55913;SDS011;58179;48.776;9.124;2022-10-16T02:08:48;10.05;;;2.30;;
55913;SDS011;58179;48.776;9.124;2022-10-16T02:11:13;20.88;;;2.70;;
55913;SDS011;58179;48.776;9.124;2022-10-16T02:13:41;7.43;;;2.45;;
55913;SDS011;58179;48.776;9.124;2022-10-16T02:16:13;7.15;;;2.20;;
55913;SDS011;58179;48.776;9.124;2022-10-16T02:18:40;5.82;;;2.40;;
55913;SDS011;58179;48.776;9.124;2022-10-16T02:21:09;7.80;;;2.33;;
55913;SDS011;58179;48.776;9.124;2022-10-16T02:23:42;6.40;;;2.42;;
55913;SDS011;58179;48.776;9.124;2022-10-16T02:26:17;4.47;;;2.10;;
55913;SDS011;58179;48.776;9.124;2022-10-16T02:28:53;11.63;;;2.55;;
55913;SDS011;58179;48.776;9.124;2022-10-16T02:31:26;5.32;;;2.30;;
55913;SDS011;58179;48.776;9.124;2022-10-16T02:33:56;7.78;;;2.35;;
55913;SDS011;58179;48.776;9.124;2022-10-16T02:36:25;13.07;;;2.53;;
55913;SDS011;58179;48.776;9.124;2022-10-16T02:38:52;4.15;;;2.08;;
55913;SDS011;58179;48.776;9.124;2022-10-16T02:41:18;7.40;;;2.10;;
55913;SDS011;58179;48.776;9.124;2022-10-16T02:43:46;11.23;;;2.50;;
55913;SDS011;58179;48.776;9.124;2022-10-16T02:46:12;14.87;;;2.87;;
55913;SDS011;58179;48.776;9.124;2022-10-16T02:48:39;5.50;;;2.30;;
55913;SDS011;58179;48.776;9.124;2022-10-16T02:51:05;7.03;;;2.40;;
55913;SDS011;58179;48.776;9.124;2022-10-16T02:53:31;19.40;;;3.13;;
55913;SDS011;58179;48.776;9.124;2022-10-16T02:55:57;8.15;;;2.38;;
55913;SDS011;58179;48.776;9.124;2022-10-16T02:58:23;7.45;;;2.42;;
55913;SDS011;58179;48.776;9.124;2022-10-16T03:00:49;6.85;;;2.30;;
55913;SDS011;58179;48.776;9.124;2022-10-16T03:03:15;8.37;;;2.07;;
55913;SDS011;58179;48.776;9.124;2022-10-16T03:05:43;6.53;;;2.40;;
55913;SDS011;58179;48.776;9.124;2022-10-16T03:08:10;7.73;;;2.50;;
55913;SDS011;58179;48.776;9.124;2022-10-16T03:10:36;6.72;;;2.28;;
55913;SDS011;58179;48.776;9.124;2022-10-16T03:13:02;4.72;;;2.20;;
55913;SDS011;58179;48.776;9.124;2022-10-16T03:15:28;5.93;;;2.03;;
55913;SDS011;58179;48.776;9.124;2022-10-16T03:17:54;11.53;;;2.20;;
55913;SDS011;58179;48.776;9.124;2022-10-16T03:20:22;10.43;;;2.50;;
55913;SDS011;58179;48.776;9.124;2022-10-16T03:22:50;13.95;;;2.95;;
55913;SDS011;58179;48.776;9.124;2022-10-16T03:25:16;10.63;;;2.65;;
55913;SDS011;58179;48.776;9.124;2022-10-16T03:27:41;7.20;;;2.40;;
55913;SDS011;58179;48.776;9.124;2022-10-16T03:30:10;5.50;;;2.40;;
55913;SDS011;58179;48.776;9.124;2022-10-16T03:32:36;5.47;;;2.45;;
55913;SDS011;58179;48.776;9.124;2022-10-16T03:35:02;10.13;;;2.40;;
55913;SDS011;58179;48.776;9.124;2022-10-16T03:37:29;8.20;;;2.25;;
55913;SDS011;58179;48.776;9.124;2022-10-16T03:39:56;8.10;;;2.20;;
55913;SDS011;58179;48.776;9.124;2022-10-16T03:42:22;5.60;;;2.42;;
55913;SDS011;58179;48.776;9.124;2022-10-16T03:44:49;11.85;;;2.75;;
55913;SDS011;58179;48.776;9.124;2022-10-16T03:47:15;13.93;;;2.53;;
55913;SDS011;58179;48.776;9.124;2022-10-16T03:49:45;8.48;;;2.20;;
55913;SDS011;58179;48.776;9.124;2022-10-16T03:52:11;6.05;;;2.25;;
55913;SDS011;58179;48.776;9.124;2022-10-16T03:54:37;11.82;;;2.80;;
55913;SDS011;58179;48.776;9.124;2022-10-16T03:57:04;8.80;;;2.17;;
55913;SDS011;58179;48.776;9.124;2022-10-16T03:59:30;4.05;;;2.25;;
55913;SDS011;58179;48.776;9.124;2022-10-16T04:01:56;6.10;;;2.17;;
55913;SDS011;58179;48.776;9.124;2022-10-16T04:04:22;10.85;;;2.67;;
55913;SDS011;58179;48.776;9.124;2022-10-16T04:06:49;12.63;;;2.40;;
55913;SDS011;58179;48.776;9.124;2022-10-16T04:09:15;8.27;;;2.50;;
55913;SDS011;58179;48.776;9.124;2022-10-16T04:11:40;12.03;;;2.70;;
55913;SDS011;58179;48.776;9.124;2022-10-16T04:14:08;8.53;;;2.47;;
55913;SDS011;58179;48.776;9.124;2022-10-16T04:16:34;6.35;;;2.40;;
55913;SDS011;58179;48.776;9.124;2022-10-16T04:19:00;13.13;;;2.75;;
55913;SDS011;58179;48.776;9.124;2022-10-16T04:21:25;7.90;;;2.43;;
55913;SDS011;58179;48.776;9.124;2022-10-16T04:23:51;13.60;;;2.50;;
55913;SDS011;58179;48.776;9.124;2022-10-16T04:26:17;14.75;;;2.58;;
55913;SDS011;58179;48.776;9.124;2022-10-16T04:28:43;13.80;;;3.22;;
55913;SDS011;58179;48.776;9.124;2022-10-16T04:31:10;4.00;;;1.92;;
55913;SDS011;58179;48.776;9.124;2022-10-16T04:33:36;5.80;;;2.60;;
55913;SDS011;58179;48.776;9.124;2022-10-16T04:36:03;6.38;;;2.20;;
55913;SDS011;58179;48.776;9.124;2022-10-16T04:38:29;9.43;;;2.88;;
55913;SDS011;58179;48.776;9.124;2022-10-16T04:40:56;10.52;;;2.50;;
55913;SDS011;58179;48.776;9.124;2022-10-16T04:43:22;16.63;;;2.70;;
55913;SDS011;58179;48.776;9.124;2022-10-16T04:45:48;8.82;;;2.40;;
55913;SDS011;58179;48.776;9.124;2022-10-16T04:48:17;7.97;;;2.20;;
55913;SDS011;58179;48.776;9.124;2022-10-16T04:50:43;5.97;;;2.30;;
55913;SDS011;58179;48.776;9.124;2022-10-16T04:53:09;13.20;;;2.78;;
55913;SDS011;58179;48.776;9.124;2022-10-16T04:55:35;5.70;;;2.33;;
55913;SDS011;58179;48.776;9.124;2022-10-16T04:58:02;5.97;;;2.33;;
55913;SDS011;58179;48.776;9.124;2022-10-16T05:00:28;13.43;;;2.70;;
55913;SDS011;58179;48.776;9.124;2022-10-16T05:02:54;13.95;;;2.83;;
55913;SDS011;58179;48.776;9.124;2022-10-16T05:05:21;9.70;;;2.60;;
55913;SDS011;58179;48.776;9.124;2022-10-16T05:07:48;4.78;;;2.20;;
55913;SDS011;58179;48.776;9.124;2022-10-16T05:10:14;9.15;;;2.60;;
55913;SDS011;58179;48.776;9.124;2022-10-16T05:12:41;10.63;;;2.78;;
55913;SDS011;58179;48.776;9.124;2022-10-16T05:15:07;8.70;;;2.40;;
55913;SDS011;58179;48.776;9.124;2022-10-16T05:17:34;4.97;;;2.35;;
55913;SDS011;58179;48.776;9.124;2022-10-16T05:20:00;9.77;;;3.00;;
55913;SDS011;58179;48.776;9.124;2022-10-16T05:22:27;10.10;;;2.90;;
55913;SDS011;58179;48.776;9.124;2022-10-16T05:24:53;5.90;;;2.85;;
55913;SDS011;58179;48.776;9.124;2022-10-16T05:27:19;11.48;;;2.85;;
55913;SDS011;58179;48.776;9.124;2022-10-16T05:29:45;18.70;;;2.75;;
55913;SDS011;58179;48.776;9.124;2022-10-16T05:32:12;10.10;;;2.57;;
55913;SDS011;58179;48.776;9.124;2022-10-16T05:34:39;17.70;;;2.70;;
55913;SDS011;58179;48.776;9.124;2022-10-16T05:37:05;8.27;;;3.08;;
55913;SDS011;58179;48.776;9.124;2022-10-16T05:39:32;7.47;;;2.58;;
55913;SDS011;58179;48.776;9.124;2022-10-16T05:41:58;12.07;;;2.55;;
55913;SDS011;58179;48.776;9.124;2022-10-16T05:44:24;12.70;;;3.15;;
55913;SDS011;58179;48.776;9.124;2022-10-16T05:46:50;6.05;;;2.67;;
55913;SDS011;58179;48.776;9.124;2022-10-16T05:49:16;4.28;;;2.72;;
55913;SDS011;58179;48.776;9.124;2022-10-16T05:51:42;11.18;;;2.65;;
55913;SDS011;58179;48.776;9.124;2022-10-16T05:54:08;5.75;;;2.78;;
55913;SDS011;58179;48.776;9.124;2022-10-16T05:56:35;12.02;;;2.85;;
55913;SDS011;58179;48.776;9.124;2022-10-16T05:59:02;7.72;;;2.58;;
55913;SDS011;58179;48.776;9.124;2022-10-16T06:01:29;9.70;;;2.70;;
55913;SDS011;58179;48.776;9.124;2022-10-16T06:03:56;7.93;;;2.95;;
55913;SDS011;58179;48.776;9.124;2022-10-16T06:06:23;11.50;;;2.60;;
55913;SDS011;58179;48.776;9.124;2022-10-16T06:08:51;5.45;;;2.38;;
55913;SDS011;58179;48.776;9.124;2022-10-16T06:11:20;4.38;;;2.53;;
55913;SDS011;58179;48.776;9.124;2022-10-16T06:13:50;8.43;;;2.58;;
55913;SDS011;58179;48.776;9.124;2022-10-16T06:16:17;8.40;;;2.47;;
55913;SDS011;58179;48.776;9.124;2022-10-16T06:18:43;5.00;;;2.40;;
55913;SDS011;58179;48.776;9.124;2022-10-16T06:21:10;19.55;;;3.17;;
55913;SDS011;58179;48.776;9.124;2022-10-16T06:23:39;9.20;;;2.40;;
55913;SDS011;58179;48.776;9.124;2022-10-16T06:26:05;11.45;;;3.38;;
55913;SDS011;58179;48.776;9.124;2022-10-16T06:28:32;7.45;;;2.22;;
55913;SDS011;58179;48.776;9.124;2022-10-16T06:31:00;6.67;;;3.10;;
55913;SDS011;58179;48.776;9.124;2022-10-16T06:33:27;6.10;;;2.50;;
55913;SDS011;58179;48.776;9.124;2022-10-16T06:35:53;6.40;;;2.50;;
55913;SDS011;58179;48.776;9.124;2022-10-16T06:38:25;7.17;;;2.40;;
55913;SDS011;58179;48.776;9.124;2022-10-16T06:40:52;8.63;;;2.50;;
55913;SDS011;58179;48.776;9.124;2022-10-16T06:43:19;5.38;;;2.38;;
55913;SDS011;58179;48.776;9.124;2022-10-16T06:45:49;6.87;;;2.50;;
55913;SDS011;58179;48.776;9.124;2022-10-16T06:48:18;4.88;;;2.38;;
55913;SDS011;58179;48.776;9.124;2022-10-16T06:50:54;5.45;;;2.40;;
55913;SDS011;58179;48.776;9.124;2022-10-16T06:53:22;9.57;;;2.85;;
55913;SDS011;58179;48.776;9.124;2022-10-16T06:55:48;6.45;;;2.40;;
55913;SDS011;58179;48.776;9.124;2022-10-16T06:58:14;9.10;;;3.38;;
55913;SDS011;58179;48.776;9.124;2022-10-16T07:00:39;9.68;;;3.00;;
55913;SDS011;58179;48.776;9.124;2022-10-16T07:03:05;9.75;;;2.97;;
55913;SDS011;58179;48.776;9.124;2022-10-16T07:05:36;8.95;;;2.50;;
55913;SDS011;58179;48.776;9.124;2022-10-16T07:08:03;7.93;;;2.30;;
55913;SDS011;58179;48.776;9.124;2022-10-16T07:10:30;8.90;;;2.65;;
55913;SDS011;58179;48.776;9.124;2022-10-16T07:12:56;10.82;;;2.30;;
55913;SDS011;58179;48.776;9.124;2022-10-16T07:15:22;11.37;;;2.57;;
55913;SDS011;58179;48.776;9.124;2022-10-16T07:17:48;7.73;;;2.20;;
55913;SDS011;58179;48.776;9.124;2022-10-16T07:20:13;3.93;;;2.47;;
55913;SDS011;58179;48.776;9.124;2022-10-16T07:22:41;13.27;;;2.50;;
55913;SDS011;58179;48.776;9.124;2022-10-16T07:25:07;6.43;;;2.17;;
55913;SDS011;58179;48.776;9.124;2022-10-16T07:27:33;5.38;;;2.20;;
55913;SDS011;58179;48.776;9.124;2022-10-16T07:29:59;8.60;;;2.38;;
55913;SDS011;58179;48.776;9.124;2022-10-16T07:32:25;5.75;;;2.25;;
55913;SDS011;58179;48.776;9.124;2022-10-16T07:34:52;7.13;;;2.25;;
55913;SDS011;58179;48.776;9.124;2022-10-16T07:37:18;8.88;;;2.38;;
55913;SDS011;58179;48.776;9.124;2022-10-16T07:39:45;6.37;;;2.13;;
55913;SDS011;58179;48.776;9.124;2022-10-16T07:42:11;5.40;;;2.13;;
55913;SDS011;58179;48.776;9.124;2022-10-16T07:44:37;7.00;;;2.08;;
55913;SDS011;58179;48.776;9.124;2022-10-16T07:47:03;4.78;;;2.20;;
55913;SDS011;58179;48.776;9.124;2022-10-16T07:49:29;10.80;;;2.57;;
55913;SDS011;58179;48.776;9.124;2022-10-16T07:51:55;6.37;;;2.30;;
55913;SDS011;58179;48.776;9.124;2022-10-16T07:54:21;3.30;;;1.95;;
55913;SDS011;58179;48.776;9.124;2022-10-16T07:56:48;3.88;;;1.90;;
55913;SDS011;58179;48.776;9.124;2022-10-16T07:59:14;3.30;;;2.10;;
55913;SDS011;58179;48.776;9.124;2022-10-16T08:01:40;4.70;;;2.00;;
55913;SDS011;58179;48.776;9.124;2022-10-16T08:04:09;12.17;;;2.00;;
55913;SDS011;58179;48.776;9.124;2022-10-16T08:06:36;3.05;;;1.80;;
55913;SDS011;58179;48.776;9.124;2022-10-16T08:09:03;4.28;;;1.90;;
55913;SDS011;58179;48.776;9.124;2022-10-16T08:11:31;6.30;;;1.80;;
55913;SDS011;58179;48.776;9.124;2022-10-16T08:13:58;2.83;;;1.77;;
55913;SDS011;58179;48.776;9.124;2022-10-16T08:16:25;4.75;;;1.83;;
55913;SDS011;58179;48.776;9.124;2022-10-16T08:18:50;4.23;;;1.70;;
55913;SDS011;58179;48.776;9.124;2022-10-16T08:21:17;9.57;;;2.10;;
55913;SDS011;58179;48.776;9.124;2022-10-16T08:23:45;8.00;;;1.73;;
55913;SDS011;58179;48.776;9.124;2022-10-16T08:26:12;3.72;;;1.80;;
55913;SDS011;58179;48.776;9.124;2022-10-16T08:28:38;5.82;;;1.98;;
55913;SDS011;58179;48.776;9.124;2022-10-16T08:31:06;1.87;;;1.40;;
55913;SDS011;58179;48.776;9.124;2022-10-16T08:33:33;3.20;;;1.40;;
55913;SDS011;58179;48.776;9.124;2022-10-16T08:36:00;3.78;;;1.65;;
55913;SDS011;58179;48.776;9.124;2022-10-16T08:38:26;2.60;;;1.73;;
55913;SDS011;58179;48.776;9.124;2022-10-16T08:40:52;4.43;;;1.70;;
55913;SDS011;58179;48.776;9.124;2022-10-16T08:43:30;2.63;;;1.60;;
55913;SDS011;58179;48.776;9.124;2022-10-16T08:46:17;3.20;;;1.65;;
55913;SDS011;58179;48.776;9.124;2022-10-16T08:48:55;1.80;;;1.60;;
55913;SDS011;58179;48.776;9.124;2022-10-16T08:51:24;2.58;;;1.58;;
55913;SDS011;58179;48.776;9.124;2022-10-16T08:53:55;4.83;;;1.50;;
55913;SDS011;58179;48.776;9.124;2022-10-16T08:56:23;4.63;;;1.60;;
55913;SDS011;58179;48.776;9.124;2022-10-16T08:58:52;5.55;;;1.83;;
55913;SDS011;58179;48.776;9.124;2022-10-16T09:01:21;3.47;;;1.80;;
55913;SDS011;58179;48.776;9.124;2022-10-16T09:04:00;5.97;;;1.50;;
55913;SDS011;58179;48.776;9.124;2022-10-16T09:06:48;5.45;;;1.50;;
55913;SDS011;58179;48.776;9.124;2022-10-16T09:09:23;6.13;;;2.10;;
55913;SDS011;58179;48.776;9.124;2022-10-16T09:12:16;2.40;;;1.65;;
55913;SDS011;58179;48.776;9.124;2022-10-16T09:17:46;3.10;;;1.45;;
55913;SDS011;58179;48.776;9.124;2022-10-16T09:20:29;2.60;;;1.50;;
55913;SDS011;58179;48.776;9.124;2022-10-16T09:23:13;2.72;;;1.70;;
55913;SDS011;58179;48.776;9.124;2022-10-16T09:25:42;3.80;;;1.60;;
55913;SDS011;58179;48.776;9.124;2022-10-16T09:28:12;3.80;;;1.50;;
55913;SDS011;58179;48.776;9.124;2022-10-16T09:30:39;2.95;;;1.42;;
55913;SDS011;58179;48.776;9.124;2022-10-16T09:33:06;5.28;;;1.77;;
55913;SDS011;58179;48.776;9.124;2022-10-16T09:35:36;4.22;;;1.58;;
55913;SDS011;58179;48.776;9.124;2022-10-16T09:38:05;3.05;;;1.50;;
55913;SDS011;58179;48.776;9.124;2022-10-16T09:40:32;2.80;;;1.25;;
55913;SDS011;58179;48.776;9.124;2022-10-16T09:43:06;4.88;;;1.70;;
55913;SDS011;58179;48.776;9.124;2022-10-16T09:45:53;2.50;;;1.48;;
55913;SDS011;58179;48.776;9.124;2022-10-16T09:48:25;6.93;;;1.70;;
55913;SDS011;58179;48.776;9.124;2022-10-16T09:50:57;1.90;;;1.33;;
55913;SDS011;58179;48.776;9.124;2022-10-16T09:53:26;1.95;;;1.70;;
55913;SDS011;58179;48.776;9.124;2022-10-16T09:56:09;2.55;;;1.50;;
55913;SDS011;58179;48.776;9.124;2022-10-16T09:58:41;4.78;;;1.40;;
55913;SDS011;58179;48.776;9.124;2022-10-16T10:01:11;2.33;;;1.35;;
55913;SDS011;58179;48.776;9.124;2022-10-16T10:03:41;2.50;;;1.50;;
55913;SDS011;58179;48.776;9.124;2022-10-16T10:06:20;5.95;;;1.58;;
55913;SDS011;58179;48.776;9.124;2022-10-16T10:08:57;3.60;;;1.35;;
55913;SDS011;58179;48.776;9.124;2022-10-16T10:11:43;4.03;;;1.60;;
55913;SDS011;58179;48.776;9.124;2022-10-16T10:14:22;2.47;;;1.57;;
55913;SDS011;58179;48.776;9.124;2022-10-16T10:17:11;4.68;;;1.67;;
55913;SDS011;58179;48.776;9.124;2022-10-16T10:19:44;1.92;;;1.30;;
55913;SDS011;58179;48.776;9.124;2022-10-16T10:22:23;3.83;;;1.60;;
55913;SDS011;58179;48.776;9.124;2022-10-16T10:27:53;3.50;;;1.42;;
55913;SDS011;58179;48.776;9.124;2022-10-16T10:30:34;3.50;;;1.40;;
55913;SDS011;58179;48.776;9.124;2022-10-16T10:33:10;4.53;;;1.50;;
55913;SDS011;58179;48.776;9.124;2022-10-16T10:35:52;5.20;;;1.65;;
55913;SDS011;58179;48.776;9.124;2022-10-16T10:38:31;7.38;;;1.55;;
55913;SDS011;58179;48.776;9.124;2022-10-16T10:41:11;4.28;;;1.73;;
55913;SDS011;58179;48.776;9.124;2022-10-16T10:44:14;5.45;;;2.00;;
55913;SDS011;58179;48.776;9.124;2022-10-16T10:46:51;2.78;;;1.40;;
55913;SDS011;58179;48.776;9.124;2022-10-16T10:49:28;3.60;;;1.48;;
55913;SDS011;58179;48.776;9.124;2022-10-16T10:52:19;1.90;;;1.20;;
55913;SDS011;58179;48.776;9.124;2022-10-16T10:55:09;2.10;;;1.30;;
55913;SDS011;58179;48.776;9.124;2022-10-16T10:57:49;4.63;;;1.30;;
55913;SDS011;58179;48.776;9.124;2022-10-16T11:00:34;5.55;;;1.90;;
55913;SDS011;58179;48.776;9.124;2022-10-16T11:03:19;2.97;;;1.42;;
55913;SDS011;58179;48.776;9.124;2022-10-16T11:06:00;3.28;;;1.30;;
55913;SDS011;58179;48.776;9.124;2022-10-16T11:08:34;4.63;;;1.47;;
55913;SDS011;58179;48.776;9.124;2022-10-16T11:11:06;1.70;;;1.40;;
55913;SDS011;58179;48.776;9.124;2022-10-16T11:13:42;2.35;;;1.20;;
55913;SDS011;58179;48.776;9.124;2022-10-16T11:16:17;3.67;;;1.53;;
55913;SDS011;58179;48.776;9.124;2022-10-16T11:18:49;2.70;;;1.50;;
55913;SDS011;58179;48.776;9.124;2022-10-16T11:21:24;4.65;;;1.25;;
55913;SDS011;58179;48.776;9.124;2022-10-16T11:23:55;2.25;;;1.52;;
55913;SDS011;58179;48.776;9.124;2022-10-16T11:26:29;6.25;;;1.50;;
55913;SDS011;58179;48.776;9.124;2022-10-16T11:29:00;1.90;;;1.38;;
55913;SDS011;58179;48.776;9.124;2022-10-16T11:31:32;4.10;;;1.40;;
55913;SDS011;58179;48.776;9.124;2022-10-16T11:34:04;2.10;;;1.27;;
55913;SDS011;58179;48.776;9.124;2022-10-16T11:36:41;2.40;;;1.20;;
55913;SDS011;58179;48.776;9.124;2022-10-16T11:39:18;4.68;;;1.40;;
55913;SDS011;58179;48.776;9.124;2022-10-16T11:41:47;2.97;;;1.35;;
55913;SDS011;58179;48.776;9.124;2022-10-16T11:44:20;3.85;;;1.50;;
55913;SDS011;58179;48.776;9.124;2022-10-16T11:47:01;5.47;;;1.45;;
55913;SDS011;58179;48.776;9.124;2022-10-16T11:49:38;5.53;;;1.67;;
55913;SDS011;58179;48.776;9.124;2022-10-16T11:52:06;4.13;;;1.50;;
55913;SDS011;58179;48.776;9.124;2022-10-16T11:54:43;5.80;;;1.50;;
55913;SDS011;58179;48.776;9.124;2022-10-16T11:57:17;3.70;;;1.40;;
55913;SDS011;58179;48.776;9.124;2022-10-16T11:59:48;1.98;;;1.40;;
55913;SDS011;58179;48.776;9.124;2022-10-16T12:02:28;2.30;;;1.50;;
55913;SDS011;58179;48.776;9.124;2022-10-16T12:05:14;3.22;;;1.40;;
55913;SDS011;58179;48.776;9.124;2022-10-16T12:07:49;2.58;;;1.33;;
55913;SDS011;58179;48.776;9.124;2022-10-16T12:10:29;1.85;;;1.33;;
55913;SDS011;58179;48.776;9.124;2022-10-16T12:13:02;4.47;;;1.50;;
55913;SDS011;58179;48.776;9.124;2022-10-16T12:15:29;3.47;;;1.67;;
55913;SDS011;58179;48.776;9.124;2022-10-16T12:17:57;3.38;;;1.40;;
55913;SDS011;58179;48.776;9.124;2022-10-16T12:20:27;2.95;;;1.50;;
55913;SDS011;58179;48.776;9.124;2022-10-16T12:22:57;2.42;;;1.38;;
55913;SDS011;58179;48.776;9.124;2022-10-16T12:25:28;2.60;;;1.40;;
55913;SDS011;58179;48.776;9.124;2022-10-16T12:27:57;1.98;;;1.50;;
55913;SDS011;58179;48.776;9.124;2022-10-16T12:30:27;4.17;;;1.60;;
55913;SDS011;58179;48.776;9.124;2022-10-16T12:32:56;2.50;;;1.20;;
55913;SDS011;58179;48.776;9.124;2022-10-16T12:35:25;2.23;;;1.30;;
55913;SDS011;58179;48.776;9.124;2022-10-16T12:38:03;2.10;;;1.38;;
55913;SDS011;58179;48.776;9.124;2022-10-16T12:40:35;3.72;;;1.65;;
55913;SDS011;58179;48.776;9.124;2022-10-16T12:43:13;1.85;;;1.33;;
55913;SDS011;58179;48.776;9.124;2022-10-16T12:46:02;3.20;;;1.30;;
55913;SDS011;58179;48.776;9.124;2022-10-16T12:48:31;1.92;;;1.30;;
55913;SDS011;58179;48.776;9.124;2022-10-16T12:50:57;3.90;;;1.42;;
55913;SDS011;58179;48.776;9.124;2022-10-16T12:53:36;3.92;;;1.40;;
55913;SDS011;58179;48.776;9.124;2022-10-16T12:56:11;3.13;;;1.45;;
55913;SDS011;58179;48.776;9.124;2022-10-16T12:58:50;1.85;;;1.20;;
55913;SDS011;58179;48.776;9.124;2022-10-16T13:01:31;6.13;;;1.58;;
55913;SDS011;58179;48.776;9.124;2022-10-16T13:04:14;1.98;;;1.50;;
55913;SDS011;58179;48.776;9.124;2022-10-16T13:06:58;6.37;;;1.70;;
55913;SDS011;58179;48.776;9.124;2022-10-16T13:09:42;2.80;;;1.50;;
55913;SDS011;58179;48.776;9.124;2022-10-16T13:12:35;7.22;;;1.92;;
55913;SDS011;58179;48.776;9.124;2022-10-16T13:15:26;3.55;;;1.42;;
55913;SDS011;58179;48.776;9.124;2022-10-16T13:18:15;7.78;;;2.20;;
55913;SDS011;58179;48.776;9.124;2022-10-16T13:20:52;6.90;;;1.80;;
55913;SDS011;58179;48.776;9.124;2022-10-16T13:23:33;2.30;;;1.40;;
55913;SDS011;58179;48.776;9.124;2022-10-16T13:26:13;3.13;;;1.42;;
55913;SDS011;58179;48.776;9.124;2022-10-16T13:28:49;1.60;;;1.42;;
55913;SDS011;58179;48.776;9.124;2022-10-16T13:31:17;3.30;;;1.98;;
55913;SDS011;58179;48.776;9.124;2022-10-16T13:33:47;3.25;;;1.55;;
55913;SDS011;58179;48.776;9.124;2022-10-16T13:36:19;3.40;;;1.70;;
55913;SDS011;58179;48.776;9.124;2022-10-16T13:38:47;3.83;;;1.48;;
55913;SDS011;58179;48.776;9.124;2022-10-16T13:41:14;3.20;;;1.50;;
55913;SDS011;58179;48.776;9.124;2022-10-16T13:43:43;5.30;;;1.80;;
55913;SDS011;58179;48.776;9.124;2022-10-16T13:46:14;6.78;;;1.63;;
55913;SDS011;58179;48.776;9.124;2022-10-16T13:48:42;6.18;;;1.48;;
55913;SDS011;58179;48.776;9.124;2022-10-16T13:51:11;4.18;;;1.40;;
55913;SDS011;58179;48.776;9.124;2022-10-16T13:53:40;4.32;;;1.50;;
55913;SDS011;58179;48.776;9.124;2022-10-16T13:56:07;3.67;;;1.60;;
55913;SDS011;58179;48.776;9.124;2022-10-16T13:58:38;4.43;;;1.90;;
55913;SDS011;58179;48.776;9.124;2022-10-16T14:01:05;3.00;;;1.50;;
55913;SDS011;58179;48.776;9.124;2022-10-16T14:03:42;3.60;;;1.60;;
55913;SDS011;58179;48.776;9.124;2022-10-16T14:06:11;4.70;;;1.70;;
55913;SDS011;58179;48.776;9.124;2022-10-16T14:08:41;10.48;;;2.10;;
55913;SDS011;58179;48.776;9.124;2022-10-16T14:11:10;12.02;;;2.30;;
55913;SDS011;58179;48.776;9.124;2022-10-16T14:13:38;6.00;;;2.17;;
55913;SDS011;58179;48.776;9.124;2022-10-16T14:16:10;9.50;;;2.22;;
55913;SDS011;58179;48.776;9.124;2022-10-16T14:18:44;13.52;;;2.33;;
55913;SDS011;58179;48.776;9.124;2022-10-16T14:21:16;5.80;;;2.00;;
55913;SDS011;58179;48.776;9.124;2022-10-16T14:23:43;7.47;;;2.10;;
55913;SDS011;58179;48.776;9.124;2022-10-16T14:26:17;6.80;;;2.20;;
55913;SDS011;58179;48.776;9.124;2022-10-16T14:28:45;12.60;;;2.70;;
55913;SDS011;58179;48.776;9.124;2022-10-16T14:31:27;22.90;;;3.22;;
55913;SDS011;58179;48.776;9.124;2022-10-16T14:33:56;16.00;;;2.40;;
55913;SDS011;58179;48.776;9.124;2022-10-16T14:36:22;8.90;;;2.13;;
55913;SDS011;58179;48.776;9.124;2022-10-16T14:38:53;8.50;;;2.00;;
55913;SDS011;58179;48.776;9.124;2022-10-16T14:41:28;9.65;;;2.33;;
55913;SDS011;58179;48.776;9.124;2022-10-16T14:43:56;18.30;;;2.80;;
55913;SDS011;58179;48.776;9.124;2022-10-16T14:46:30;13.15;;;2.60;;
55913;SDS011;58179;48.776;9.124;2022-10-16T14:49:00;5.50;;;2.07;;
55913;SDS011;58179;48.776;9.124;2022-10-16T14:51:38;9.90;;;2.80;;
55913;SDS011;58179;48.776;9.124;2022-10-16T14:54:07;11.40;;;2.30;;
55913;SDS011;58179;48.776;9.124;2022-10-16T14:56:34;12.83;;;2.17;;
55913;SDS011;58179;48.776;9.124;2022-10-16T14:59:11;9.45;;;2.35;;
55913;SDS011;58179;48.776;9.124;2022-10-16T15:01:43;8.07;;;2.15;;
55913;SDS011;58179;48.776;9.124;2022-10-16T15:04:10;14.00;;;2.63;;
55913;SDS011;58179;48.776;9.124;2022-10-16T15:06:38;6.43;;;2.65;;
55913;SDS011;58179;48.776;9.124;2022-10-16T15:09:04;16.83;;;3.58;;
55913;SDS011;58179;48.776;9.124;2022-10-16T15:11:30;7.13;;;3.00;;